TimeCST,TemperatureF,Dew PointF,Humidity,Sea Level PressureIn,VisibilityMPH,Wind Direction,Wind SpeedMPH,Gust SpeedMPH,PrecipitationIn,Events,Conditions,WindDirDegrees,DateUTC
12:56 AM,34.9,32.0,89,30.34,9.0,NE,5.8,-,N/A,,Clear,40,2013-03-08 06:56:00
1:56 AM,32.9,32.0,96,30.36,7.0,North,3.5,-,N/A,,Clear,10,2013-03-08 07:56:00
2:56 AM,34.0,32.0,92,30.33,9.0,NE,8.1,-,N/A,,Clear,40,2013-03-08 08:56:00
3:56 AM,32.9,31.1,93,30.33,8.0,NE,8.1,-,N/A,,Scattered Clouds,40,2013-03-08 09:56:00
4:56 AM,32.0,31.1,96,30.34,7.0,NE,8.1,-,N/A,,Clear,40,2013-03-08 10:56:00
5:56 AM,32.0,30.0,92,30.37,8.0,NNE,5.8,-,N/A,,Clear,30,2013-03-08 11:56:00
6:56 AM,31.1,30.0,96,30.40,5.0,NNE,5.8,-,N/A,,Clear,20,2013-03-08 12:56:00
7:56 AM,36.9,32.9,86,30.40,10.0,ENE,8.1,-,N/A,,Clear,70,2013-03-08 13:56:00
8:56 AM,41.0,32.9,73,30.41,6.0,East,8.1,-,N/A,,Haze,80,2013-03-08 14:56:00
9:56 AM,43.9,32.9,65,30.40,9.0,East,9.2,-,N/A,,Clear,90,2013-03-08 15:56:00
10:20 AM,46.4,33.8,62,30.39,4.0,East,5.8,-,N/A,,Haze,80,2013-03-08 16:20:00
10:27 AM,46.4,33.8,62,30.38,1.5,ENE,6.9,-,N/A,,Haze,70,2013-03-08 16:27:00
10:37 AM,46.4,35.6,66,30.38,3.0,East,8.1,-,N/A,,Haze,90,2013-03-08 16:37:00
10:47 AM,46.4,35.6,66,30.38,1.8,ENE,9.2,-,N/A,,Haze,70,2013-03-08 16:47:00
10:49 AM,46.4,35.6,66,30.39,1.0,East,8.1,-,N/A,,Haze,80,2013-03-08 16:49:00
10:56 AM,46.9,34.0,61,30.39,1.0,East,8.1,-,N/A,,Haze,80,2013-03-08 16:56:00
10:58 AM,48.2,33.8,58,30.39,2.0,East,9.2,-,N/A,,Haze,90,2013-03-08 16:58:00
11:05 AM,48.2,33.8,58,30.38,7.0,East,9.2,-,N/A,,Clear,90,2013-03-08 17:05:00
11:21 AM,48.2,35.6,62,30.37,2.0,ENE,9.2,-,N/A,,Haze,70,2013-03-08 17:21:00
11:28 AM,48.2,35.6,62,30.37,1.5,East,10.4,-,N/A,,Haze,90,2013-03-08 17:28:00
11:31 AM,48.2,35.6,62,30.37,3.0,East,6.9,-,N/A,,Haze,100,2013-03-08 17:31:00
11:42 AM,50.0,35.6,58,30.37,1.5,ENE,9.2,-,N/A,,Haze,70,2013-03-08 17:42:00
11:44 AM,50.0,35.6,58,30.37,1.0,ENE,5.8,-,N/A,,Haze,70,2013-03-08 17:44:00
11:56 AM,50.0,34.9,56,30.37,9.0,East,9.2,-,N/A,,Clear,100,2013-03-08 17:56:00
12:56 PM,52.0,34.9,52,30.34,10.0,ENE,5.8,-,N/A,,Clear,60,2013-03-08 18:56:00
1:56 PM,54.0,36.0,51,30.31,10.0,ENE,8.1,-,N/A,,Clear,70,2013-03-08 19:56:00
2:56 PM,54.9,36.0,49,30.30,10.0,ENE,5.8,-,N/A,,Clear,70,2013-03-08 20:56:00
3:56 PM,54.0,36.0,51,30.27,10.0,ENE,6.9,-,N/A,,Clear,70,2013-03-08 21:56:00
4:56 PM,52.9,37.9,57,30.25,10.0,East,9.2,-,N/A,,Clear,90,2013-03-08 22:56:00
5:56 PM,50.9,39.9,66,30.24,10.0,NE,3.5,-,N/A,,Clear,50,2013-03-08 23:56:00
6:56 PM,47.8,41.0,77,30.24,10.0,NE,6.9,-,N/A,,Clear,50,2013-03-09 00:56:00
7:56 PM,47.8,38.8,71,30.26,10.0,NNE,4.6,-,N/A,,Clear,20,2013-03-09 01:56:00
8:56 PM,45.9,39.9,80,30.23,10.0,NE,6.9,-,N/A,,Clear,50,2013-03-09 02:56:00
9:56 PM,45.9,38.8,76,30.23,10.0,NE,3.5,-,N/A,,Clear,40,2013-03-09 03:56:00
10:56 PM,45.9,38.8,76,30.21,10.0,North,3.5,-,N/A,,Clear,360,2013-03-09 04:56:00
11:56 PM,45.9,39.9,80,30.18,10.0,NE,3.5,-,N/A,,Clear,40,2013-03-09 05:56:00